sensor_id;sensor_type;location;lat;lon;timestamp;P1;durP1;ratioP1;P2;durP2;ratioP2
14191;SDS011;7177;48.572;7.838;2024-01-16T00:01:30;12.27;;;8.47;;
14191;SDS011;7177;48.572;7.838;2024-01-16T00:03:55;12.53;;;8.23;;
14191;SDS011;7177;48.572;7.838;2024-01-16T00:06:21;12.80;;;8.37;;
14191;SDS011;7177;48.572;7.838;2024-01-16T00:08:47;14.20;;;8.47;;
14191;SDS011;7177;48.572;7.838;2024-01-16T00:11:12;13.73;;;8.33;;
14191;SDS011;7177;48.572;7.838;2024-01-16T00:13:38;13.87;;;8.77;;
14191;SDS011;7177;48.572;7.838;2024-01-16T00:16:03;12.37;;;7.90;;
14191;SDS011;7177;48.572;7.838;2024-01-16T00:18:29;12.63;;;7.73;;
14191;SDS011;7177;48.572;7.838;2024-01-16T00:20:55;10.90;;;7.57;;
14191;SDS011;7177;48.572;7.838;2024-01-16T00:23:20;13.43;;;7.87;;
14191;SDS011;7177;48.572;7.838;2024-01-16T00:25:46;9.93;;;7.47;;
14191;SDS011;7177;48.572;7.838;2024-01-16T00:28:11;11.90;;;7.90;;
14191;SDS011;7177;48.572;7.838;2024-01-16T00:30:37;11.20;;;7.07;;
14191;SDS011;7177;48.572;7.838;2024-01-16T00:33:02;11.10;;;6.90;;
14191;SDS011;7177;48.572;7.838;2024-01-16T00:35:28;10.90;;;7.03;;
14191;SDS011;7177;48.572;7.838;2024-01-16T00:37:53;11.87;;;7.37;;
14191;SDS011;7177;48.572;7.838;2024-01-16T00:40:19;10.83;;;7.07;;
14191;SDS011;7177;48.572;7.838;2024-01-16T00:42:44;13.87;;;7.30;;
14191;SDS011;7177;48.572;7.838;2024-01-16T00:45:10;11.37;;;6.80;;
14191;SDS011;7177;48.572;7.838;2024-01-16T00:47:35;11.90;;;7.50;;
14191;SDS011;7177;48.572;7.838;2024-01-16T00:50:01;12.97;;;8.40;;
14191;SDS011;7177;48.572;7.838;2024-01-16T00:52:27;12.93;;;8.57;;
14191;SDS011;7177;48.572;7.838;2024-01-16T00:54:53;11.30;;;7.73;;
14191;SDS011;7177;48.572;7.838;2024-01-16T00:57:18;13.27;;;8.40;;
14191;SDS011;7177;48.572;7.838;2024-01-16T00:59:45;11.60;;;7.57;;
14191;SDS011;7177;48.572;7.838;2024-01-16T01:02:11;13.88;;;7.90;;
14191;SDS011;7177;48.572;7.838;2024-01-16T01:04:37;13.07;;;7.80;;
14191;SDS011;7177;48.572;7.838;2024-01-16T01:07:02;13.80;;;8.67;;
14191;SDS011;7177;48.572;7.838;2024-01-16T01:09:28;13.23;;;8.53;;
14191;SDS011;7177;48.572;7.838;2024-01-16T01:11:53;11.97;;;8.97;;
14191;SDS011;7177;48.572;7.838;2024-01-16T01:14:19;14.57;;;9.43;;
14191;SDS011;7177;48.572;7.838;2024-01-16T01:16:44;15.13;;;9.60;;
14191;SDS011;7177;48.572;7.838;2024-01-16T01:19:10;15.20;;;10.17;;
14191;SDS011;7177;48.572;7.838;2024-01-16T01:21:36;15.00;;;9.00;;
14191;SDS011;7177;48.572;7.838;2024-01-16T01:24:01;16.97;;;10.73;;
14191;SDS011;7177;48.572;7.838;2024-01-16T01:26:27;18.70;;;11.60;;
14191;SDS011;7177;48.572;7.838;2024-01-16T01:28:52;16.50;;;10.77;;
14191;SDS011;7177;48.572;7.838;2024-01-16T01:31:18;18.67;;;11.37;;
14191;SDS011;7177;48.572;7.838;2024-01-16T01:33:43;17.87;;;11.07;;
14191;SDS011;7177;48.572;7.838;2024-01-16T01:36:09;19.77;;;11.23;;
14191;SDS011;7177;48.572;7.838;2024-01-16T01:38:35;21.43;;;11.23;;
14191;SDS011;7177;48.572;7.838;2024-01-16T01:41:00;20.20;;;11.93;;
14191;SDS011;7177;48.572;7.838;2024-01-16T01:43:26;19.83;;;11.43;;
14191;SDS011;7177;48.572;7.838;2024-01-16T01:48:32;18.00;;;10.98;;
14191;SDS011;7177;48.572;7.838;2024-01-16T01:50:59;17.48;;;10.27;;
14191;SDS011;7177;48.572;7.838;2024-01-16T01:53:25;15.85;;;10.38;;
14191;SDS011;7177;48.572;7.838;2024-01-16T01:55:51;20.25;;;11.50;;
14191;SDS011;7177;48.572;7.838;2024-01-16T01:58:17;20.60;;;11.43;;
14191;SDS011;7177;48.572;7.838;2024-01-16T02:00:43;16.90;;;10.80;;
14191;SDS011;7177;48.572;7.838;2024-01-16T02:03:09;17.55;;;11.05;;
14191;SDS011;7177;48.572;7.838;2024-01-16T02:05:35;19.03;;;11.30;;
14191;SDS011;7177;48.572;7.838;2024-01-16T02:08:03;18.67;;;11.68;;
14191;SDS011;7177;48.572;7.838;2024-01-16T02:10:29;17.30;;;11.07;;
14191;SDS011;7177;48.572;7.838;2024-01-16T02:12:56;18.35;;;11.50;;
14191;SDS011;7177;48.572;7.838;2024-01-16T02:15:22;19.20;;;11.27;;
14191;SDS011;7177;48.572;7.838;2024-01-16T02:17:48;18.35;;;12.10;;
14191;SDS011;7177;48.572;7.838;2024-01-16T02:20:14;17.20;;;11.33;;
14191;SDS011;7177;48.572;7.838;2024-01-16T02:22:40;19.43;;;12.37;;
14191;SDS011;7177;48.572;7.838;2024-01-16T02:25:11;18.17;;;10.95;;
14191;SDS011;7177;48.572;7.838;2024-01-16T02:27:36;19.63;;;11.37;;
14191;SDS011;7177;48.572;7.838;2024-01-16T02:30:02;18.60;;;11.70;;
14191;SDS011;7177;48.572;7.838;2024-01-16T02:32:28;20.43;;;12.53;;
14191;SDS011;7177;48.572;7.838;2024-01-16T02:34:53;17.87;;;11.47;;
14191;SDS011;7177;48.572;7.838;2024-01-16T02:37:19;17.77;;;11.80;;
14191;SDS011;7177;48.572;7.838;2024-01-16T02:39:44;21.97;;;12.33;;
14191;SDS011;7177;48.572;7.838;2024-01-16T02:42:10;18.43;;;11.77;;
14191;SDS011;7177;48.572;7.838;2024-01-16T02:44:35;20.50;;;12.17;;
14191;SDS011;7177;48.572;7.838;2024-01-16T02:47:01;21.53;;;13.00;;
14191;SDS011;7177;48.572;7.838;2024-01-16T02:49:26;24.23;;;12.57;;
14191;SDS011;7177;48.572;7.838;2024-01-16T02:51:52;24.00;;;13.07;;
14191;SDS011;7177;48.572;7.838;2024-01-16T02:54:19;24.88;;;14.02;;
14191;SDS011;7177;48.572;7.838;2024-01-16T02:56:45;23.00;;;13.60;;
14191;SDS011;7177;48.572;7.838;2024-01-16T02:59:10;22.33;;;13.37;;
14191;SDS011;7177;48.572;7.838;2024-01-16T03:01:36;21.47;;;12.47;;
14191;SDS011;7177;48.572;7.838;2024-01-16T03:04:01;23.97;;;13.43;;
14191;SDS011;7177;48.572;7.838;2024-01-16T03:06:27;20.67;;;13.03;;
14191;SDS011;7177;48.572;7.838;2024-01-16T03:08:53;23.10;;;13.93;;
14191;SDS011;7177;48.572;7.838;2024-01-16T03:11:19;25.13;;;14.23;;
14191;SDS011;7177;48.572;7.838;2024-01-16T03:13:44;21.60;;;12.77;;
14191;SDS011;7177;48.572;7.838;2024-01-16T03:16:10;24.70;;;13.97;;
14191;SDS011;7177;48.572;7.838;2024-01-16T03:18:36;22.63;;;12.93;;
14191;SDS011;7177;48.572;7.838;2024-01-16T03:21:03;22.65;;;13.50;;
14191;SDS011;7177;48.572;7.838;2024-01-16T03:23:32;24.58;;;13.68;;
14191;SDS011;7177;48.572;7.838;2024-01-16T03:25:58;19.53;;;13.07;;
14191;SDS011;7177;48.572;7.838;2024-01-16T03:28:23;22.17;;;13.57;;
14191;SDS011;7177;48.572;7.838;2024-01-16T03:30:50;24.95;;;14.07;;
14191;SDS011;7177;48.572;7.838;2024-01-16T03:33:15;25.50;;;14.80;;
14191;SDS011;7177;48.572;7.838;2024-01-16T03:35:41;22.23;;;13.30;;
14191;SDS011;7177;48.572;7.838;2024-01-16T03:38:06;23.43;;;13.17;;
14191;SDS011;7177;48.572;7.838;2024-01-16T03:40:32;21.80;;;13.57;;
14191;SDS011;7177;48.572;7.838;2024-01-16T03:42:59;23.05;;;14.48;;
14191;SDS011;7177;48.572;7.838;2024-01-16T03:45:25;22.75;;;13.20;;
14191;SDS011;7177;48.572;7.838;2024-01-16T03:47:51;22.40;;;13.77;;
14191;SDS011;7177;48.572;7.838;2024-01-16T03:50:16;20.23;;;13.00;;
14191;SDS011;7177;48.572;7.838;2024-01-16T03:52:42;23.97;;;13.73;;
14191;SDS011;7177;48.572;7.838;2024-01-16T03:55:07;22.63;;;13.60;;
14191;SDS011;7177;48.572;7.838;2024-01-16T03:57:33;20.93;;;13.50;;
14191;SDS011;7177;48.572;7.838;2024-01-16T03:59:58;20.10;;;12.67;;
14191;SDS011;7177;48.572;7.838;2024-01-16T04:02:24;20.43;;;13.30;;
14191;SDS011;7177;48.572;7.838;2024-01-16T04:04:49;22.83;;;13.63;;
14191;SDS011;7177;48.572;7.838;2024-01-16T04:07:15;23.47;;;13.73;;
14191;SDS011;7177;48.572;7.838;2024-01-16T04:09:42;22.20;;;12.73;;
14191;SDS011;7177;48.572;7.838;2024-01-16T04:12:08;21.75;;;13.18;;
14191;SDS011;7177;48.572;7.838;2024-01-16T04:14:33;21.73;;;13.27;;
14191;SDS011;7177;48.572;7.838;2024-01-16T04:16:59;19.60;;;12.20;;
14191;SDS011;7177;48.572;7.838;2024-01-16T04:19:25;21.23;;;13.20;;
14191;SDS011;7177;48.572;7.838;2024-01-16T04:21:50;21.20;;;12.70;;
14191;SDS011;7177;48.572;7.838;2024-01-16T04:24:16;21.80;;;13.23;;
14191;SDS011;7177;48.572;7.838;2024-01-16T04:26:41;21.10;;;12.63;;
14191;SDS011;7177;48.572;7.838;2024-01-16T04:29:07;19.03;;;13.07;;
14191;SDS011;7177;48.572;7.838;2024-01-16T04:31:38;20.00;;;12.85;;
14191;SDS011;7177;48.572;7.838;2024-01-16T04:34:05;20.13;;;12.73;;
14191;SDS011;7177;48.572;7.838;2024-01-16T04:36:31;21.20;;;12.47;;
14191;SDS011;7177;48.572;7.838;2024-01-16T04:38:56;21.50;;;12.80;;
14191;SDS011;7177;48.572;7.838;2024-01-16T04:41:22;20.43;;;13.20;;
14191;SDS011;7177;48.572;7.838;2024-01-16T04:43:47;21.50;;;13.23;;
14191;SDS011;7177;48.572;7.838;2024-01-16T04:46:14;21.60;;;13.25;;
14191;SDS011;7177;48.572;7.838;2024-01-16T04:48:40;20.88;;;12.98;;
14191;SDS011;7177;48.572;7.838;2024-01-16T04:51:06;19.90;;;13.17;;
14191;SDS011;7177;48.572;7.838;2024-01-16T04:53:32;25.83;;;15.18;;
14191;SDS011;7177;48.572;7.838;2024-01-16T04:55:58;28.43;;;17.37;;
14191;SDS011;7177;48.572;7.838;2024-01-16T04:58:24;28.40;;;16.50;;
14191;SDS011;7177;48.572;7.838;2024-01-16T05:00:49;24.73;;;15.50;;
14191;SDS011;7177;48.572;7.838;2024-01-16T05:03:15;27.57;;;15.13;;
14191;SDS011;7177;48.572;7.838;2024-01-16T05:05:40;25.77;;;15.10;;
14191;SDS011;7177;48.572;7.838;2024-01-16T05:08:06;22.33;;;13.33;;
14191;SDS011;7177;48.572;7.838;2024-01-16T05:10:32;21.10;;;13.50;;
14191;SDS011;7177;48.572;7.838;2024-01-16T05:12:57;23.53;;;13.80;;
14191;SDS011;7177;48.572;7.838;2024-01-16T05:15:23;20.67;;;13.53;;
14191;SDS011;7177;48.572;7.838;2024-01-16T05:17:49;20.33;;;13.20;;
14191;SDS011;7177;48.572;7.838;2024-01-16T05:20:14;23.83;;;14.60;;
14191;SDS011;7177;48.572;7.838;2024-01-16T05:22:40;20.37;;;13.17;;
14191;SDS011;7177;48.572;7.838;2024-01-16T05:25:06;21.40;;;13.77;;
14191;SDS011;7177;48.572;7.838;2024-01-16T05:27:34;22.35;;;13.82;;
14191;SDS011;7177;48.572;7.838;2024-01-16T05:30:00;21.67;;;13.10;;
14191;SDS011;7177;48.572;7.838;2024-01-16T05:32:26;23.00;;;14.03;;
14191;SDS011;7177;48.572;7.838;2024-01-16T05:34:52;20.97;;;12.70;;
14191;SDS011;7177;48.572;7.838;2024-01-16T05:37:18;19.83;;;12.60;;
14191;SDS011;7177;48.572;7.838;2024-01-16T05:39:44;19.52;;;12.57;;
14191;SDS011;7177;48.572;7.838;2024-01-16T05:42:10;21.37;;;13.57;;
14191;SDS011;7177;48.572;7.838;2024-01-16T05:44:36;21.15;;;12.48;;
14191;SDS011;7177;48.572;7.838;2024-01-16T05:47:03;24.60;;;13.32;;
14191;SDS011;7177;48.572;7.838;2024-01-16T05:49:29;24.05;;;13.45;;
14191;SDS011;7177;48.572;7.838;2024-01-16T05:51:54;23.00;;;13.67;;
14191;SDS011;7177;48.572;7.838;2024-01-16T05:54:20;24.17;;;14.87;;
14191;SDS011;7177;48.572;7.838;2024-01-16T05:56:45;22.63;;;14.20;;
14191;SDS011;7177;48.572;7.838;2024-01-16T05:59:11;23.47;;;13.77;;
14191;SDS011;7177;48.572;7.838;2024-01-16T06:01:36;24.10;;;13.53;;
14191;SDS011;7177;48.572;7.838;2024-01-16T06:04:03;24.73;;;13.35;;
14191;SDS011;7177;48.572;7.838;2024-01-16T06:06:28;26.90;;;14.70;;
14191;SDS011;7177;48.572;7.838;2024-01-16T06:08:54;22.80;;;14.10;;
14191;SDS011;7177;48.572;7.838;2024-01-16T06:11:29;22.83;;;14.10;;
14191;SDS011;7177;48.572;7.838;2024-01-16T06:13:57;23.88;;;14.60;;
14191;SDS011;7177;48.572;7.838;2024-01-16T06:16:24;25.17;;;15.00;;
14191;SDS011;7177;48.572;7.838;2024-01-16T06:18:50;26.33;;;16.40;;
14191;SDS011;7177;48.572;7.838;2024-01-16T06:21:15;24.63;;;14.90;;
14191;SDS011;7177;48.572;7.838;2024-01-16T06:23:41;28.75;;;16.13;;
14191;SDS011;7177;48.572;7.838;2024-01-16T06:26:07;23.57;;;15.00;;
14191;SDS011;7177;48.572;7.838;2024-01-16T06:28:33;23.27;;;15.63;;
14191;SDS011;7177;48.572;7.838;2024-01-16T06:30:58;24.80;;;15.13;;
14191;SDS011;7177;48.572;7.838;2024-01-16T06:33:24;23.70;;;14.97;;
14191;SDS011;7177;48.572;7.838;2024-01-16T06:35:50;26.48;;;15.15;;
14191;SDS011;7177;48.572;7.838;2024-01-16T06:38:16;25.47;;;15.83;;
14191;SDS011;7177;48.572;7.838;2024-01-16T06:40:42;26.80;;;15.43;;
14191;SDS011;7177;48.572;7.838;2024-01-16T06:43:07;24.80;;;15.53;;
14191;SDS011;7177;48.572;7.838;2024-01-16T06:45:33;24.55;;;15.23;;
14191;SDS011;7177;48.572;7.838;2024-01-16T06:47:59;22.53;;;14.47;;
14191;SDS011;7177;48.572;7.838;2024-01-16T06:50:24;26.07;;;15.77;;
14191;SDS011;7177;48.572;7.838;2024-01-16T06:52:50;26.40;;;15.73;;
14191;SDS011;7177;48.572;7.838;2024-01-16T06:55:15;24.00;;;14.90;;
14191;SDS011;7177;48.572;7.838;2024-01-16T06:57:41;21.03;;;13.57;;
14191;SDS011;7177;48.572;7.838;2024-01-16T07:00:07;23.77;;;14.17;;
14191;SDS011;7177;48.572;7.838;2024-01-16T07:02:33;23.70;;;13.47;;
14191;SDS011;7177;48.572;7.838;2024-01-16T07:04:58;22.77;;;13.83;;
14191;SDS011;7177;48.572;7.838;2024-01-16T07:07:24;22.43;;;13.30;;
14191;SDS011;7177;48.572;7.838;2024-01-16T07:09:49;21.77;;;13.60;;
14191;SDS011;7177;48.572;7.838;2024-01-16T07:12:15;21.17;;;13.67;;
14191;SDS011;7177;48.572;7.838;2024-01-16T07:14:40;21.80;;;13.17;;
14191;SDS011;7177;48.572;7.838;2024-01-16T07:17:06;19.37;;;12.33;;
14191;SDS011;7177;48.572;7.838;2024-01-16T07:19:32;20.50;;;12.68;;
14191;SDS011;7177;48.572;7.838;2024-01-16T07:21:58;22.73;;;13.23;;
14191;SDS011;7177;48.572;7.838;2024-01-16T07:24:24;18.77;;;12.37;;
14191;SDS011;7177;48.572;7.838;2024-01-16T07:26:49;22.80;;;12.83;;
14191;SDS011;7177;48.572;7.838;2024-01-16T07:29:15;20.67;;;12.50;;
14191;SDS011;7177;48.572;7.838;2024-01-16T07:31:40;22.63;;;11.67;;
14191;SDS011;7177;48.572;7.838;2024-01-16T07:34:06;20.47;;;12.13;;
14191;SDS011;7177;48.572;7.838;2024-01-16T07:36:32;21.77;;;12.47;;
14191;SDS011;7177;48.572;7.838;2024-01-16T07:38:57;20.27;;;11.97;;
14191;SDS011;7177;48.572;7.838;2024-01-16T07:41:23;18.13;;;11.83;;
14191;SDS011;7177;48.572;7.838;2024-01-16T07:43:48;20.37;;;12.13;;
14191;SDS011;7177;48.572;7.838;2024-01-16T07:46:14;22.07;;;14.17;;
14191;SDS011;7177;48.572;7.838;2024-01-16T07:48:39;24.60;;;13.70;;
14191;SDS011;7177;48.572;7.838;2024-01-16T07:51:05;21.23;;;14.20;;
14191;SDS011;7177;48.572;7.838;2024-01-16T07:53:31;22.03;;;13.53;;
14191;SDS011;7177;48.572;7.838;2024-01-16T07:55:57;23.95;;;14.68;;
14191;SDS011;7177;48.572;7.838;2024-01-16T07:58:23;21.67;;;13.43;;
14191;SDS011;7177;48.572;7.838;2024-01-16T08:00:48;21.33;;;13.33;;
14191;SDS011;7177;48.572;7.838;2024-01-16T08:03:14;23.73;;;13.63;;
14191;SDS011;7177;48.572;7.838;2024-01-16T08:05:40;20.27;;;12.50;;
14191;SDS011;7177;48.572;7.838;2024-01-16T08:08:08;22.03;;;13.00;;
14191;SDS011;7177;48.572;7.838;2024-01-16T08:10:34;21.50;;;13.68;;
14191;SDS011;7177;48.572;7.838;2024-01-16T08:13:00;26.07;;;14.27;;
14191;SDS011;7177;48.572;7.838;2024-01-16T08:15:25;22.70;;;13.43;;
14191;SDS011;7177;48.572;7.838;2024-01-16T08:17:51;19.63;;;12.97;;
14191;SDS011;7177;48.572;7.838;2024-01-16T08:20:16;21.60;;;13.23;;
14191;SDS011;7177;48.572;7.838;2024-01-16T08:22:42;20.90;;;13.43;;
14191;SDS011;7177;48.572;7.838;2024-01-16T08:25:07;19.17;;;12.90;;
14191;SDS011;7177;48.572;7.838;2024-01-16T08:27:33;21.53;;;13.27;;
14191;SDS011;7177;48.572;7.838;2024-01-16T08:29:59;18.53;;;12.77;;
14191;SDS011;7177;48.572;7.838;2024-01-16T08:32:25;23.08;;;14.40;;
14191;SDS011;7177;48.572;7.838;2024-01-16T08:34:51;20.77;;;14.18;;
14191;SDS011;7177;48.572;7.838;2024-01-16T08:37:17;24.67;;;14.30;;
14191;SDS011;7177;48.572;7.838;2024-01-16T08:39:42;21.40;;;13.77;;
14191;SDS011;7177;48.572;7.838;2024-01-16T08:42:08;25.17;;;15.60;;
14191;SDS011;7177;48.572;7.838;2024-01-16T08:44:36;24.35;;;14.60;;
14191;SDS011;7177;48.572;7.838;2024-01-16T08:47:02;23.85;;;15.52;;
14191;SDS011;7177;48.572;7.838;2024-01-16T08:49:31;23.35;;;14.80;;
14191;SDS011;7177;48.572;7.838;2024-01-16T08:51:59;21.55;;;13.80;;
14191;SDS011;7177;48.572;7.838;2024-01-16T08:54:25;20.83;;;13.50;;
14191;SDS011;7177;48.572;7.838;2024-01-16T08:56:51;21.85;;;13.63;;
14191;SDS011;7177;48.572;7.838;2024-01-16T08:59:17;21.57;;;13.03;;
14191;SDS011;7177;48.572;7.838;2024-01-16T09:01:43;24.43;;;13.60;;
14191;SDS011;7177;48.572;7.838;2024-01-16T09:04:09;19.40;;;12.93;;
14191;SDS011;7177;48.572;7.838;2024-01-16T09:06:35;19.17;;;13.45;;
14191;SDS011;7177;48.572;7.838;2024-01-16T09:09:01;17.23;;;11.90;;
14191;SDS011;7177;48.572;7.838;2024-01-16T09:11:29;17.15;;;11.18;;
14191;SDS011;7177;48.572;7.838;2024-01-16T09:13:54;21.57;;;12.27;;
14191;SDS011;7177;48.572;7.838;2024-01-16T09:16:20;16.87;;;12.10;;
14191;SDS011;7177;48.572;7.838;2024-01-16T09:18:45;17.17;;;11.73;;
14191;SDS011;7177;48.572;7.838;2024-01-16T09:21:11;17.10;;;11.17;;
14191;SDS011;7177;48.572;7.838;2024-01-16T09:23:36;16.67;;;11.17;;
14191;SDS011;7177;48.572;7.838;2024-01-16T09:26:02;15.83;;;11.30;;
14191;SDS011;7177;48.572;7.838;2024-01-16T09:28:28;17.53;;;10.30;;
14191;SDS011;7177;48.572;7.838;2024-01-16T09:30:54;17.10;;;10.73;;
14191;SDS011;7177;48.572;7.838;2024-01-16T09:33:21;15.10;;;10.48;;
14191;SDS011;7177;48.572;7.838;2024-01-16T09:35:47;17.60;;;11.13;;
14191;SDS011;7177;48.572;7.838;2024-01-16T09:38:13;16.07;;;10.57;;
14191;SDS011;7177;48.572;7.838;2024-01-16T09:40:39;17.17;;;11.10;;
14191;SDS011;7177;48.572;7.838;2024-01-16T09:43:04;15.87;;;10.80;;
14191;SDS011;7177;48.572;7.838;2024-01-16T09:45:33;16.77;;;10.75;;
14191;SDS011;7177;48.572;7.838;2024-01-16T09:48:02;15.35;;;10.43;;
14191;SDS011;7177;48.572;7.838;2024-01-16T09:50:29;17.08;;;10.68;;
14191;SDS011;7177;48.572;7.838;2024-01-16T09:52:55;13.90;;;9.20;;
14191;SDS011;7177;48.572;7.838;2024-01-16T09:55:20;14.23;;;9.67;;
14191;SDS011;7177;48.572;7.838;2024-01-16T09:57:46;13.07;;;9.17;;
14191;SDS011;7177;48.572;7.838;2024-01-16T10:00:16;15.00;;;8.97;;
14191;SDS011;7177;48.572;7.838;2024-01-16T10:02:42;14.03;;;9.70;;
14191;SDS011;7177;48.572;7.838;2024-01-16T10:05:09;14.57;;;9.00;;
14191;SDS011;7177;48.572;7.838;2024-01-16T10:07:40;13.00;;;8.33;;
14191;SDS011;7177;48.572;7.838;2024-01-16T10:10:08;12.43;;;8.17;;
14191;SDS011;7177;48.572;7.838;2024-01-16T10:12:38;16.23;;;9.33;;
14191;SDS011;7177;48.572;7.838;2024-01-16T10:15:07;11.00;;;7.20;;
14191;SDS011;7177;48.572;7.838;2024-01-16T10:17:40;10.53;;;6.57;;
14191;SDS011;7177;48.572;7.838;2024-01-16T10:20:07;9.37;;;6.67;;
14191;SDS011;7177;48.572;7.838;2024-01-16T10:22:38;11.03;;;7.07;;
14191;SDS011;7177;48.572;7.838;2024-01-16T10:27:31;11.50;;;6.90;;
14191;SDS011;7177;48.572;7.838;2024-01-16T10:29:57;10.30;;;6.73;;
14191;SDS011;7177;48.572;7.838;2024-01-16T10:33:01;13.57;;;6.80;;
14191;SDS011;7177;48.572;7.838;2024-01-16T10:35:15;10.50;;;6.93;;
14191;SDS011;7177;48.572;7.838;2024-01-16T10:37:45;12.83;;;8.10;;
14191;SDS011;7177;48.572;7.838;2024-01-16T10:40:19;12.60;;;7.55;;
14191;SDS011;7177;48.572;7.838;2024-01-16T10:42:57;11.57;;;7.87;;
14191;SDS011;7177;48.572;7.838;2024-01-16T10:45:26;10.63;;;7.47;;
14191;SDS011;7177;48.572;7.838;2024-01-16T10:48:10;9.97;;;7.00;;
14191;SDS011;7177;48.572;7.838;2024-01-16T10:50:37;13.30;;;8.07;;
14191;SDS011;7177;48.572;7.838;2024-01-16T10:53:04;11.97;;;7.43;;
14191;SDS011;7177;48.572;7.838;2024-01-16T10:55:31;11.77;;;7.43;;
14191;SDS011;7177;48.572;7.838;2024-01-16T10:58:00;11.10;;;6.57;;
14191;SDS011;7177;48.572;7.838;2024-01-16T11:00:27;10.13;;;6.67;;
14191;SDS011;7177;48.572;7.838;2024-01-16T11:02:59;11.10;;;6.90;;
14191;SDS011;7177;48.572;7.838;2024-01-16T11:05:31;11.57;;;6.73;;
14191;SDS011;7177;48.572;7.838;2024-01-16T11:07:58;10.67;;;7.03;;
14191;SDS011;7177;48.572;7.838;2024-01-16T11:10:26;13.30;;;7.37;;
14191;SDS011;7177;48.572;7.838;2024-01-16T11:12:52;10.67;;;7.07;;
14191;SDS011;7177;48.572;7.838;2024-01-16T11:15:18;12.30;;;7.20;;
14191;SDS011;7177;48.572;7.838;2024-01-16T11:17:45;14.57;;;7.43;;
14191;SDS011;7177;48.572;7.838;2024-01-16T11:20:11;11.53;;;6.80;;
14191;SDS011;7177;48.572;7.838;2024-01-16T11:22:39;12.83;;;7.37;;
14191;SDS011;7177;48.572;7.838;2024-01-16T11:25:07;15.87;;;8.00;;
14191;SDS011;7177;48.572;7.838;2024-01-16T11:27:37;13.37;;;7.63;;
14191;SDS011;7177;48.572;7.838;2024-01-16T11:30:06;17.57;;;8.00;;
14191;SDS011;7177;48.572;7.838;2024-01-16T11:32:37;13.83;;;8.17;;
14191;SDS011;7177;48.572;7.838;2024-01-16T11:35:05;13.37;;;8.27;;
14191;SDS011;7177;48.572;7.838;2024-01-16T11:37:35;12.40;;;7.87;;
14191;SDS011;7177;48.572;7.838;2024-01-16T11:42:46;13.07;;;7.23;;
14191;SDS011;7177;48.572;7.838;2024-01-16T11:46:02;14.90;;;8.33;;
14191;SDS011;7177;48.572;7.838;2024-01-16T11:48:12;9.53;;;7.07;;
14191;SDS011;7177;48.572;7.838;2024-01-16T11:50:42;11.47;;;7.73;;
14191;SDS011;7177;48.572;7.838;2024-01-16T11:53:08;12.30;;;7.30;;
14191;SDS011;7177;48.572;7.838;2024-01-16T11:58:21;12.33;;;8.03;;
14191;SDS011;7177;48.572;7.838;2024-01-16T12:01:09;10.77;;;7.43;;
14191;SDS011;7177;48.572;7.838;2024-01-16T12:03:37;14.27;;;8.47;;
14191;SDS011;7177;48.572;7.838;2024-01-16T12:06:02;11.23;;;7.10;;
14191;SDS011;7177;48.572;7.838;2024-01-16T12:08:31;10.90;;;7.67;;
14191;SDS011;7177;48.572;7.838;2024-01-16T12:10:57;12.37;;;7.70;;
14191;SDS011;7177;48.572;7.838;2024-01-16T12:13:22;11.60;;;7.57;;
14191;SDS011;7177;48.572;7.838;2024-01-16T12:15:48;13.03;;;8.20;;
14191;SDS011;7177;48.572;7.838;2024-01-16T12:18:28;11.23;;;7.87;;
14191;SDS011;7177;48.572;7.838;2024-01-16T12:20:54;13.90;;;7.50;;
14191;SDS011;7177;48.572;7.838;2024-01-16T12:23:20;14.70;;;9.13;;
14191;SDS011;7177;48.572;7.838;2024-01-16T12:25:47;12.10;;;7.47;;
14191;SDS011;7177;48.572;7.838;2024-01-16T12:28:20;15.37;;;8.20;;
14191;SDS011;7177;48.572;7.838;2024-01-16T12:30:49;11.23;;;7.77;;
14191;SDS011;7177;48.572;7.838;2024-01-16T12:33:21;12.87;;;8.00;;
14191;SDS011;7177;48.572;7.838;2024-01-16T12:35:47;11.77;;;6.87;;
14191;SDS011;7177;48.572;7.838;2024-01-16T12:38:13;11.50;;;7.43;;
14191;SDS011;7177;48.572;7.838;2024-01-16T12:40:40;13.73;;;7.40;;
14191;SDS011;7177;48.572;7.838;2024-01-16T12:43:13;12.03;;;7.20;;
14191;SDS011;7177;48.572;7.838;2024-01-16T12:45:41;11.00;;;6.73;;
14191;SDS011;7177;48.572;7.838;2024-01-16T12:48:06;12.30;;;7.57;;
14191;SDS011;7177;48.572;7.838;2024-01-16T12:50:33;9.00;;;6.37;;
14191;SDS011;7177;48.572;7.838;2024-01-16T12:55:29;10.07;;;7.40;;
14191;SDS011;7177;48.572;7.838;2024-01-16T13:00:44;10.03;;;6.83;;
14191;SDS011;7177;48.572;7.838;2024-01-16T13:03:17;10.20;;;6.77;;
14191;SDS011;7177;48.572;7.838;2024-01-16T13:05:44;9.90;;;6.10;;
14191;SDS011;7177;48.572;7.838;2024-01-16T13:08:16;10.57;;;5.87;;
14191;SDS011;7177;48.572;7.838;2024-01-16T13:10:43;11.03;;;5.90;;
14191;SDS011;7177;48.572;7.838;2024-01-16T13:13:15;10.37;;;4.83;;
14191;SDS011;7177;48.572;7.838;2024-01-16T13:15:44;10.97;;;6.43;;
14191;SDS011;7177;48.572;7.838;2024-01-16T13:18:23;8.30;;;4.73;;
14191;SDS011;7177;48.572;7.838;2024-01-16T13:20:50;6.00;;;4.13;;
14191;SDS011;7177;48.572;7.838;2024-01-16T13:23:17;7.80;;;5.37;;
14191;SDS011;7177;48.572;7.838;2024-01-16T13:25:43;6.97;;;4.70;;
14191;SDS011;7177;48.572;7.838;2024-01-16T13:28:10;8.23;;;5.37;;
14191;SDS011;7177;48.572;7.838;2024-01-16T13:30:40;11.13;;;6.17;;
14191;SDS011;7177;48.572;7.838;2024-01-16T13:33:06;7.83;;;4.93;;
14191;SDS011;7177;48.572;7.838;2024-01-16T13:35:33;12.23;;;6.53;;
14191;SDS011;7177;48.572;7.838;2024-01-16T13:38:06;8.43;;;5.47;;
14191;SDS011;7177;48.572;7.838;2024-01-16T13:40:33;7.93;;;4.40;;
14191;SDS011;7177;48.572;7.838;2024-01-16T13:42:59;10.20;;;4.70;;
14191;SDS011;7177;48.572;7.838;2024-01-16T13:45:25;9.97;;;5.20;;
14191;SDS011;7177;48.572;7.838;2024-01-16T13:47:51;7.40;;;4.87;;
14191;SDS011;7177;48.572;7.838;2024-01-16T13:50:17;9.53;;;5.60;;
14191;SDS011;7177;48.572;7.838;2024-01-16T13:52:42;9.47;;;5.57;;
14191;SDS011;7177;48.572;7.838;2024-01-16T13:55:08;10.07;;;5.43;;
14191;SDS011;7177;48.572;7.838;2024-01-16T13:57:34;8.90;;;5.20;;
14191;SDS011;7177;48.572;7.838;2024-01-16T14:00:04;9.43;;;5.60;;
14191;SDS011;7177;48.572;7.838;2024-01-16T14:02:31;10.33;;;6.37;;
14191;SDS011;7177;48.572;7.838;2024-01-16T14:04:59;8.37;;;5.90;;
14191;SDS011;7177;48.572;7.838;2024-01-16T14:07:25;11.67;;;5.83;;
14191;SDS011;7177;48.572;7.838;2024-01-16T14:09:50;8.13;;;5.87;;
14191;SDS011;7177;48.572;7.838;2024-01-16T14:12:16;13.03;;;6.67;;
14191;SDS011;7177;48.572;7.838;2024-01-16T14:14:43;8.10;;;5.63;;
14191;SDS011;7177;48.572;7.838;2024-01-16T14:17:09;9.57;;;6.33;;
14191;SDS011;7177;48.572;7.838;2024-01-16T14:19:35;10.70;;;6.80;;
14191;SDS011;7177;48.572;7.838;2024-01-16T14:22:00;11.93;;;6.67;;
14191;SDS011;7177;48.572;7.838;2024-01-16T14:24:26;9.60;;;5.97;;
14191;SDS011;7177;48.572;7.838;2024-01-16T14:26:51;11.03;;;5.93;;
14191;SDS011;7177;48.572;7.838;2024-01-16T14:29:17;12.37;;;5.97;;
14191;SDS011;7177;48.572;7.838;2024-01-16T14:31:43;9.60;;;6.47;;
14191;SDS011;7177;48.572;7.838;2024-01-16T14:34:13;10.27;;;6.03;;
14191;SDS011;7177;48.572;7.838;2024-01-16T14:36:39;8.40;;;6.03;;
14191;SDS011;7177;48.572;7.838;2024-01-16T14:39:05;9.57;;;6.27;;
14191;SDS011;7177;48.572;7.838;2024-01-16T14:41:31;10.23;;;5.80;;
14191;SDS011;7177;48.572;7.838;2024-01-16T14:43:57;9.00;;;6.23;;
14191;SDS011;7177;48.572;7.838;2024-01-16T14:46:23;15.80;;;7.40;;
14191;SDS011;7177;48.572;7.838;2024-01-16T14:48:48;9.17;;;6.10;;
14191;SDS011;7177;48.572;7.838;2024-01-16T14:51:14;9.63;;;6.97;;
14191;SDS011;7177;48.572;7.838;2024-01-16T14:53:39;9.43;;;6.13;;